createdAt,value
2022-08-12T00:01:13.390Z,2.17
2022-08-12T00:03:59.213Z,2.45
2022-08-12T00:06:47.083Z,2.05
2022-08-12T00:09:32.885Z,2.28
2022-08-12T00:12:20.221Z,2.60
2022-08-12T00:15:07.350Z,2.25
2022-08-12T00:17:52.972Z,2.28
2022-08-12T00:20:38.676Z,2.90
2022-08-12T00:23:25.107Z,2.25
2022-08-12T00:26:22.420Z,2.25
2022-08-12T00:29:16.035Z,2.50
2022-08-12T00:32:02.526Z,2.13
2022-08-12T00:34:50.934Z,2.22
2022-08-12T00:37:39.353Z,2.10
2022-08-12T00:40:28.369Z,2.22
2022-08-12T00:42:57.139Z,2.50
2022-08-12T00:45:24.634Z,2.13
2022-08-12T00:47:53.667Z,2.20
2022-08-12T00:50:23.169Z,2.70
2022-08-12T00:52:53.938Z,2.15
2022-08-12T00:55:21.933Z,2.15
2022-08-12T00:57:50.641Z,2.35
2022-08-12T01:00:24.395Z,2.28
2022-08-12T01:02:57.608Z,2.08
2022-08-12T01:05:44.975Z,2.10
2022-08-12T01:08:31.395Z,2.40
2022-08-12T01:13:48.250Z,2.28
2022-08-12T01:16:18.246Z,2.20
2022-08-12T01:18:45.812Z,2.13
2022-08-12T01:21:34.142Z,2.30
2022-08-12T01:24:30.426Z,2.55
2022-08-12T01:27:07.798Z,2.42
2022-08-12T01:29:41.868Z,2.55
2022-08-12T01:32:12.256Z,2.35
2022-08-12T01:34:44.495Z,2.42
2022-08-12T01:37:14.583Z,2.55
2022-08-12T01:40:31.678Z,2.35
2022-08-12T01:42:50.499Z,2.30
2022-08-12T01:45:23.034Z,2.30
2022-08-12T01:48:08.378Z,2.85
2022-08-12T01:51:01.277Z,2.15
2022-08-12T01:54:05.901Z,2.38
2022-08-12T01:56:49.046Z,2.75
2022-08-12T01:59:42.704Z,2.40
2022-08-12T02:02:15.077Z,2.08
2022-08-12T02:05:23.263Z,2.35
2022-08-12T02:08:34.547Z,2.35
2022-08-12T02:11:19.169Z,2.20
2022-08-12T02:14:24.582Z,2.25
2022-08-12T02:17:05.380Z,2.22
2022-08-12T02:19:42.796Z,2.30
2022-08-12T02:22:28.838Z,2.40
2022-08-12T02:27:59.310Z,2.05
2022-08-12T02:30:41.925Z,2.70
2022-08-12T02:33:13.228Z,2.35
2022-08-12T02:35:41.304Z,2.00
2022-08-12T02:38:10.812Z,2.20
2022-08-12T02:40:40.456Z,2.30
2022-08-12T02:43:37.975Z,2.33
2022-08-12T02:46:14.734Z,2.15
2022-08-12T02:48:51.138Z,2.40
2022-08-12T02:51:39.004Z,2.22
2022-08-12T02:54:07.553Z,2.38
2022-08-12T02:56:42.235Z,2.22
2022-08-12T02:59:22.202Z,2.25
2022-08-12T03:01:56.187Z,2.40
2022-08-12T03:04:29.992Z,2.28
2022-08-12T03:07:05.014Z,2.20
2022-08-12T03:09:39.093Z,2.63
2022-08-12T03:12:25.084Z,2.60
2022-08-12T03:14:55.145Z,2.40
2022-08-12T03:17:43.701Z,2.83
2022-08-12T03:20:14.315Z,2.65
2022-08-12T03:22:46.804Z,2.38
2022-08-12T03:25:26.791Z,2.10
2022-08-12T03:27:56.954Z,2.30
2022-08-12T03:30:31.503Z,2.42
2022-08-12T03:33:01.192Z,2.70
2022-08-12T03:35:40.921Z,2.53
2022-08-12T03:38:12.522Z,2.42
2022-08-12T03:41:19.342Z,2.20
2022-08-12T03:44:25.914Z,2.50
2022-08-12T03:47:34.632Z,1.95
2022-08-12T03:50:21.415Z,2.30
2022-08-12T03:53:07.924Z,2.30
2022-08-12T03:55:54.655Z,2.42
2022-08-12T03:58:40.922Z,2.28
2022-08-12T04:01:15.665Z,2.70
2022-08-12T04:03:53.499Z,2.10
2022-08-12T04:06:34.388Z,2.60
2022-08-12T04:09:16.394Z,2.75
2022-08-12T04:12:04.309Z,2.50
2022-08-12T04:14:32.638Z,2.25
2022-08-12T04:17:00.380Z,2.30
2022-08-12T04:19:27.666Z,2.00
2022-08-12T04:22:00.884Z,2.35
2022-08-12T04:24:35.390Z,1.98
2022-08-12T04:27:07.039Z,2.15
2022-08-12T04:30:30.099Z,2.13
2022-08-12T04:32:22.069Z,2.00
2022-08-12T04:34:50.097Z,2.03
2022-08-12T04:37:17.215Z,2.35
2022-08-12T04:39:45.975Z,2.15
2022-08-12T04:42:13.251Z,2.60
2022-08-12T04:44:40.262Z,2.17
2022-08-12T04:47:11.729Z,2.40
2022-08-12T04:49:40.804Z,2.50
2022-08-12T04:52:08.022Z,2.40
2022-08-12T04:54:35.600Z,2.22
2022-08-12T04:57:04.870Z,2.70
2022-08-12T04:59:46.567Z,2.17
2022-08-12T05:02:17.049Z,2.47
2022-08-12T05:05:00.884Z,2.35
2022-08-12T05:07:28.695Z,2.13
2022-08-12T05:10:00.425Z,2.20
2022-08-12T05:12:34.313Z,2.20
2022-08-12T05:15:01.792Z,2.17
2022-08-12T05:17:28.908Z,2.40
2022-08-12T05:19:57.960Z,2.53
2022-08-12T05:22:28.704Z,2.30
2022-08-12T05:24:55.710Z,2.38
2022-08-12T05:27:23.013Z,2.10
2022-08-12T05:30:07.087Z,2.10
2022-08-12T05:32:37.324Z,2.13
2022-08-12T05:35:07.043Z,1.70
2022-08-12T05:37:35.079Z,2.17
2022-08-12T05:40:10.049Z,2.70
2022-08-12T05:42:39.757Z,2.28
2022-08-12T05:45:07.723Z,2.00
2022-08-12T05:47:52.822Z,2.10
2022-08-12T05:50:21.572Z,2.15
2022-08-12T05:52:48.624Z,2.20
2022-08-12T05:55:15.709Z,2.20
2022-08-12T05:57:48.551Z,2.10
2022-08-12T06:00:17.442Z,2.03
2022-08-12T06:02:46.629Z,2.10
2022-08-12T06:05:14.049Z,2.00
2022-08-12T06:08:00.911Z,2.30
2022-08-12T06:10:32.545Z,2.15
2022-08-12T06:13:07.509Z,1.77
2022-08-12T06:15:38.342Z,2.10
2022-08-12T06:18:14.217Z,2.00
2022-08-12T06:20:43.698Z,2.33
2022-08-12T06:23:11.962Z,2.30
2022-08-12T06:25:39.228Z,2.10
2022-08-12T06:28:17.713Z,1.85
2022-08-12T06:31:02.611Z,2.10
2022-08-12T06:34:00.662Z,2.28
2022-08-12T06:36:29.613Z,1.73
2022-08-12T06:38:57.441Z,2.05
2022-08-12T06:42:05.081Z,1.80
2022-08-12T06:44:30.093Z,2.03
2022-08-12T06:46:58.332Z,1.67
2022-08-12T06:49:25.712Z,1.95
2022-08-12T06:51:57.122Z,1.75
2022-08-12T06:54:31.273Z,1.85
2022-08-12T06:57:05.322Z,1.98
2022-08-12T06:59:51.036Z,1.65
2022-08-12T07:02:20.693Z,1.50
2022-08-12T07:04:48.066Z,1.55
2022-08-12T07:07:15.793Z,1.60
2022-08-12T07:10:04.269Z,1.50
2022-08-12T07:12:32.429Z,1.50
2022-08-12T07:15:01.870Z,1.50
2022-08-12T07:17:36.830Z,1.40
2022-08-12T07:22:58.759Z,1.40
2022-08-12T07:25:37.907Z,1.20
2022-08-12T07:28:18.244Z,1.63
2022-08-12T07:30:49.308Z,1.20
2022-08-12T07:33:18.468Z,1.20
2022-08-12T07:35:48.110Z,1.23
2022-08-12T07:38:29.141Z,1.20
2022-08-12T07:41:02.185Z,1.30
2022-08-12T07:43:31.189Z,1.63
2022-08-12T07:46:00.542Z,1.10
2022-08-12T07:48:28.378Z,1.00
2022-08-12T07:50:55.478Z,0.93
2022-08-12T07:53:22.731Z,1.20
2022-08-12T07:55:50.036Z,1.50
2022-08-12T07:58:17.444Z,1.40
2022-08-12T08:00:44.715Z,1.30
2022-08-12T08:03:13.426Z,1.17
2022-08-12T08:05:46.341Z,1.42
2022-08-12T08:08:20.361Z,1.40
2022-08-12T08:10:49.621Z,1.57
2022-08-12T08:13:16.994Z,1.27
2022-08-12T08:16:02.524Z,1.40
2022-08-12T08:18:31.472Z,1.40
2022-08-12T08:20:58.494Z,1.00
2022-08-12T08:23:46.555Z,1.27
2022-08-12T08:26:15.666Z,1.20
2022-08-12T08:28:43.656Z,1.15
2022-08-12T08:31:12.889Z,1.10
2022-08-12T08:34:09.613Z,1.25
2022-08-12T08:36:28.931Z,1.20
2022-08-12T08:38:58.360Z,1.10
2022-08-12T08:42:15.213Z,1.13
2022-08-12T08:44:36.544Z,1.17
2022-08-12T08:47:05.881Z,1.27
2022-08-12T08:49:37.949Z,1.10
2022-08-12T08:52:06.437Z,0.98
2022-08-12T08:54:34.433Z,1.10
2022-08-12T08:57:02.763Z,1.10
2022-08-12T08:59:29.926Z,1.13
2022-08-12T09:01:57.648Z,1.15
2022-08-12T09:05:08.206Z,1.15
2022-08-12T09:07:43.806Z,1.15
2022-08-12T09:10:09.205Z,1.10
2022-08-12T09:13:02.720Z,1.10
2022-08-12T09:15:36.328Z,1.08
2022-08-12T09:20:55.623Z,0.93
2022-08-12T09:23:58.735Z,1.00
2022-08-12T09:26:09.818Z,1.40
2022-08-12T09:28:38.930Z,2.97
2022-08-12T09:32:06.780Z,1.60
2022-08-12T09:34:29.145Z,1.00
2022-08-12T09:37:00.964Z,1.05
2022-08-12T09:40:05.338Z,1.40
2022-08-12T09:42:49.290Z,1.42
2022-08-12T09:46:11.465Z,1.20
2022-08-12T09:48:21.997Z,1.02
2022-08-12T09:50:55.119Z,1.20
2022-08-12T09:53:36.158Z,1.33
2022-08-12T09:56:58.969Z,1.02
2022-08-12T09:59:10.048Z,1.10
2022-08-12T10:02:42.115Z,1.20
2022-08-12T10:04:26.436Z,1.15
2022-08-12T10:06:57.783Z,1.05
2022-08-12T10:09:28.882Z,1.00
2022-08-12T10:12:33.135Z,1.00
2022-08-12T10:15:06.094Z,1.00
2022-08-12T10:17:33.588Z,0.90
2022-08-12T10:20:01.524Z,1.00
2022-08-12T10:22:49.016Z,0.80
2022-08-12T10:26:34.381Z,0.95
2022-08-12T10:28:42.269Z,1.20
2022-08-12T10:31:29.319Z,0.90
2022-08-12T10:34:25.879Z,1.13
2022-08-12T10:37:00.400Z,0.95
2022-08-12T10:40:03.291Z,0.80
2022-08-12T10:43:00.537Z,0.90
2022-08-12T10:45:29.047Z,1.05
2022-08-12T10:48:07.418Z,0.75
2022-08-12T10:51:01.115Z,0.90
2022-08-12T10:53:43.835Z,0.80
2022-08-12T10:56:17.702Z,0.90
2022-08-12T10:58:46.988Z,0.90
2022-08-12T11:01:25.824Z,1.00
2022-08-12T11:04:18.688Z,1.10
2022-08-12T11:07:06.817Z,1.02
2022-08-12T11:09:58.553Z,0.85
2022-08-12T11:12:56.674Z,0.85
2022-08-12T11:15:33.087Z,0.90
2022-08-12T11:18:12.048Z,0.82
2022-08-12T11:20:45.550Z,0.90
2022-08-12T11:23:25.571Z,0.90
2022-08-12T11:26:05.122Z,0.70
2022-08-12T11:28:37.067Z,0.90
2022-08-12T11:31:09.783Z,0.93
2022-08-12T11:34:06.098Z,0.70
2022-08-12T11:36:30.664Z,0.80
2022-08-12T11:39:04.326Z,0.70
2022-08-12T11:41:34.917Z,0.80
2022-08-12T11:44:35.044Z,0.95
2022-08-12T11:46:55.408Z,1.05
2022-08-12T11:49:31.626Z,1.02
2022-08-12T11:52:03.943Z,0.75
2022-08-12T11:54:31.616Z,0.90
2022-08-12T11:57:02.026Z,0.90
2022-08-12T12:02:20.431Z,1.08
2022-08-12T12:04:53.709Z,0.80
2022-08-12T12:08:36.204Z,0.65
2022-08-12T12:10:14.583Z,1.00
2022-08-12T12:12:49.494Z,0.90
2022-08-12T12:15:25.406Z,0.93
2022-08-12T12:18:05.809Z,0.82
2022-08-12T12:20:34.876Z,0.80
2022-08-12T12:23:03.074Z,0.80
2022-08-12T12:26:06.451Z,0.80
2022-08-12T12:28:37.046Z,0.90
2022-08-12T12:31:05.060Z,0.90
2022-08-12T12:33:56.938Z,1.00
2022-08-12T12:36:29.954Z,0.93
2022-08-12T12:39:00.295Z,1.00
2022-08-12T12:42:42.001Z,0.82
2022-08-12T12:44:30.351Z,1.10
2022-08-12T12:47:29.385Z,0.90
2022-08-12T12:49:53.854Z,0.82
2022-08-12T12:52:21.512Z,1.25
2022-08-12T12:54:55.831Z,1.10
2022-08-12T12:57:36.399Z,1.08
2022-08-12T13:00:16.128Z,0.93
2022-08-12T13:02:53.569Z,1.02
2022-08-12T13:05:42.294Z,1.13
2022-08-12T13:08:40.730Z,1.08
2022-08-12T13:11:09.225Z,1.00
2022-08-12T13:14:10.466Z,0.98
2022-08-12T13:16:26.780Z,0.90
2022-08-12T13:18:54.904Z,0.90
2022-08-12T13:21:33.664Z,1.00
2022-08-12T13:24:10.514Z,1.13
2022-08-12T13:26:41.200Z,1.20
2022-08-12T13:29:11.624Z,1.00
2022-08-12T13:31:46.603Z,1.17
2022-08-12T13:34:34.214Z,1.15
2022-08-12T13:37:09.614Z,1.13
2022-08-12T13:39:38.205Z,1.25
2022-08-12T13:42:12.383Z,1.10
2022-08-12T13:44:41.535Z,0.98
2022-08-12T13:47:19.409Z,1.20
2022-08-12T13:49:54.877Z,0.85
2022-08-12T13:52:23.768Z,1.10
2022-08-12T13:54:56.466Z,1.23
2022-08-12T13:57:26.589Z,1.15
2022-08-12T14:00:00.851Z,1.25
2022-08-12T14:05:31.287Z,1.10
2022-08-12T14:08:02.217Z,0.85
2022-08-12T14:10:38.915Z,0.98
2022-08-12T14:14:03.659Z,1.10
2022-08-12T14:16:37.707Z,1.25
2022-08-12T14:19:10.614Z,0.93
2022-08-12T14:21:59.616Z,0.93
2022-08-12T14:24:35.396Z,1.10
2022-08-12T14:27:09.040Z,1.02
2022-08-12T14:30:04.333Z,1.13
2022-08-12T14:32:36.557Z,1.10
2022-08-12T14:35:09.015Z,1.00
2022-08-12T14:37:56.195Z,0.95
2022-08-12T14:40:28.310Z,1.00
2022-08-12T14:42:57.262Z,0.90
2022-08-12T14:45:45.292Z,1.00
2022-08-12T14:48:24.275Z,0.90
2022-08-12T14:51:03.240Z,0.90
2022-08-12T14:59:56.973Z,1.23
2022-08-12T15:02:21.719Z,1.20
2022-08-12T15:05:03.875Z,1.13
2022-08-12T15:07:33.523Z,1.30
2022-08-12T15:10:13.616Z,1.13
2022-08-12T15:12:40.911Z,1.17
2022-08-12T15:15:10.459Z,1.20
2022-08-12T15:17:39.616Z,1.30
2022-08-12T15:20:33.220Z,1.35
2022-08-12T15:22:57.963Z,0.90
2022-08-12T15:25:26.326Z,1.08
2022-08-12T15:28:04.373Z,1.13
2022-08-12T15:30:34.798Z,0.98
2022-08-12T15:33:12.577Z,1.20
2022-08-12T15:35:52.978Z,1.00
2022-08-12T15:38:25.192Z,1.10
2022-08-12T15:40:54.135Z,1.00
2022-08-12T15:43:35.655Z,1.00
2022-08-12T15:46:15.053Z,1.15
2022-08-12T15:48:47.156Z,1.17
2022-08-12T15:51:59.385Z,0.90
2022-08-12T15:54:34.399Z,1.10
2022-08-12T15:57:10.728Z,0.90
2022-08-12T16:00:00.304Z,1.20
2022-08-12T16:02:29.466Z,1.13
2022-08-12T16:04:57.542Z,1.10
2022-08-12T16:07:29.995Z,1.02
2022-08-12T16:10:06.979Z,1.00
2022-08-12T16:12:54.504Z,1.15
2022-08-12T16:15:25.099Z,1.00
2022-08-12T16:18:18.175Z,1.25
2022-08-12T16:20:46.410Z,1.15
2022-08-12T16:23:51.102Z,1.08
2022-08-12T16:26:14.500Z,1.08
2022-08-12T16:28:47.238Z,1.15
2022-08-12T16:31:23.611Z,0.90
2022-08-12T16:33:58.695Z,1.27
2022-08-12T16:36:30.188Z,1.30
2022-08-12T16:39:01.212Z,1.10
2022-08-12T16:41:39.485Z,1.10
2022-08-12T16:44:10.565Z,1.13
2022-08-12T16:46:40.086Z,1.20
2022-08-12T16:49:23.518Z,1.25
2022-08-12T16:51:52.995Z,0.98
2022-08-12T16:54:26.615Z,1.20
2022-08-12T16:57:09.607Z,1.20
2022-08-12T16:59:53.179Z,1.00
2022-08-12T17:02:33.802Z,1.15
2022-08-12T17:05:05.458Z,0.93
2022-08-12T17:07:43.203Z,1.02
2022-08-12T17:10:18.300Z,1.13
2022-08-12T17:13:10.205Z,1.35
2022-08-12T17:15:57.634Z,1.00
2022-08-12T17:18:43.713Z,1.10
2022-08-12T17:21:19.754Z,1.35
2022-08-12T17:23:53.424Z,1.15
2022-08-12T17:26:28.229Z,1.00
2022-08-12T17:28:56.999Z,1.20
2022-08-12T17:31:59.239Z,1.00
2022-08-12T17:34:31.140Z,1.02
2022-08-12T17:37:05.045Z,1.00
2022-08-12T17:40:12.216Z,1.05
2022-08-12T17:42:34.773Z,1.00
2022-08-12T17:45:18.136Z,1.23
2022-08-12T17:48:04.761Z,1.10
2022-08-12T17:50:35.987Z,1.23
2022-08-12T17:53:04.013Z,0.90
2022-08-12T17:55:43.152Z,1.40
2022-08-12T17:58:13.957Z,1.40
2022-08-12T18:00:45.858Z,1.33
2022-08-12T18:04:14.055Z,0.95
2022-08-12T18:06:13.969Z,0.85
2022-08-12T18:08:53.681Z,1.10
2022-08-12T18:12:05.991Z,0.90
2022-08-12T18:14:30.282Z,0.90
2022-08-12T18:17:02.587Z,1.52
2022-08-12T18:20:03.842Z,1.15
2022-08-12T18:22:22.305Z,0.90
2022-08-12T18:25:04.975Z,0.93
2022-08-12T18:27:43.095Z,1.25
2022-08-12T18:30:20.490Z,1.25
2022-08-12T18:33:04.966Z,1.40
2022-08-12T18:35:46.375Z,1.05
2022-08-12T18:38:22.295Z,1.73
2022-08-12T18:41:09.936Z,3.78
2022-08-12T18:43:58.571Z,3.33
2022-08-12T18:46:32.777Z,2.90
2022-08-12T18:49:17.161Z,5.18
2022-08-12T18:52:04.773Z,3.85
2022-08-12T18:54:49.039Z,2.10
2022-08-12T18:58:06.977Z,1.60
2022-08-12T19:00:22.243Z,1.50
2022-08-12T19:02:53.378Z,1.30
2022-08-12T19:05:21.158Z,1.70
2022-08-12T19:08:01.065Z,2.00
2022-08-12T19:10:30.266Z,2.60
2022-08-12T19:13:21.005Z,2.08
2022-08-12T19:15:49.980Z,1.70
2022-08-12T19:18:18.912Z,2.15
2022-08-12T19:20:50.392Z,2.03
2022-08-12T19:23:20.936Z,1.50
2022-08-12T19:26:00.112Z,1.60
2022-08-12T19:28:34.836Z,1.73
2022-08-12T19:31:57.751Z,1.92
2022-08-12T19:36:06.611Z,1.40
2022-08-12T19:38:06.263Z,1.33
2022-08-12T19:40:32.888Z,1.50
2022-08-12T19:43:19.100Z,2.10
2022-08-12T19:45:56.483Z,1.55
2022-08-12T19:48:30.815Z,1.60
2022-08-12T19:51:09.113Z,1.90
2022-08-12T19:53:58.252Z,1.48
2022-08-12T19:56:29.463Z,1.38
2022-08-12T19:59:18.655Z,2.17
2022-08-12T20:02:03.161Z,7.20
2022-08-12T20:04:37.433Z,26.02
2022-08-12T20:07:22.996Z,31.67
2022-08-12T20:09:53.598Z,17.17
2022-08-12T20:12:31.769Z,7.55
2022-08-12T20:15:05.137Z,3.40
2022-08-12T20:17:36.374Z,2.20
2022-08-12T20:20:21.198Z,1.98
2022-08-12T20:22:55.845Z,1.60
2022-08-12T20:25:28.256Z,1.80
2022-08-12T20:28:10.780Z,1.63
2022-08-12T20:30:53.511Z,2.40
2022-08-12T20:33:32.376Z,1.90
2022-08-12T20:36:42.398Z,1.40
2022-08-12T20:39:05.899Z,1.50
2022-08-12T20:41:54.557Z,1.67
2022-08-12T20:44:23.045Z,1.48
2022-08-12T20:46:50.729Z,1.70
2022-08-12T20:49:17.919Z,2.05
2022-08-12T20:51:55.650Z,1.55
2022-08-12T20:54:32.459Z,1.70
2022-08-12T20:57:09.780Z,1.90
2022-08-12T20:59:41.906Z,1.80
2022-08-12T21:02:15.441Z,1.73
2022-08-12T21:05:02.812Z,1.63
2022-08-12T21:07:51.477Z,1.67
2022-08-12T21:12:48.620Z,1.80
2022-08-12T21:15:23.634Z,1.60
2022-08-12T21:18:11.699Z,1.85
2022-08-12T21:20:50.918Z,1.58
2022-08-12T21:23:21.720Z,1.88
2022-08-12T21:25:51.130Z,1.52
2022-08-12T21:28:20.840Z,1.55
2022-08-12T21:31:11.610Z,1.60
2022-08-12T21:34:06.409Z,1.50
2022-08-12T21:36:34.383Z,1.80
2022-08-12T21:39:20.101Z,1.63
2022-08-12T21:41:54.417Z,1.48
2022-08-12T21:45:48.390Z,1.88
2022-08-12T21:47:21.773Z,1.48
2022-08-12T21:50:03.341Z,1.63
2022-08-12T21:52:41.164Z,1.80
2022-08-12T21:57:54.679Z,2.00
2022-08-12T22:00:32.252Z,2.10
2022-08-12T22:04:03.844Z,1.90
2022-08-12T22:06:30.567Z,1.90
2022-08-12T22:09:15.371Z,1.90
2022-08-12T22:11:49.090Z,2.10
2022-08-12T22:14:24.585Z,2.10
2022-08-12T22:16:54.235Z,1.83
2022-08-12T22:19:22.889Z,2.08
2022-08-12T22:21:53.397Z,2.17
2022-08-12T22:24:26.936Z,2.00
2022-08-12T22:26:58.727Z,2.10
2022-08-12T22:29:44.126Z,2.20
2022-08-12T22:32:13.326Z,2.05
2022-08-12T22:34:44.600Z,2.00
2022-08-12T22:37:19.797Z,2.10
2022-08-12T22:39:49.347Z,1.83
2022-08-12T22:42:35.862Z,2.33
2022-08-12T22:45:23.317Z,1.80
2022-08-12T22:47:55.052Z,2.20
2022-08-12T22:50:29.760Z,2.17
2022-08-12T22:53:15.648Z,1.90
2022-08-12T22:55:59.001Z,1.63
2022-08-12T22:58:32.013Z,2.00
2022-08-12T23:01:02.373Z,1.85
2022-08-12T23:03:47.977Z,1.75
2022-08-12T23:06:23.910Z,2.15
2022-08-12T23:08:52.413Z,1.90
2022-08-12T23:11:23.315Z,1.98
2022-08-12T23:13:54.718Z,1.60
2022-08-12T23:16:32.900Z,2.10
2022-08-12T23:19:09.724Z,1.90
2022-08-12T23:22:06.660Z,2.10
2022-08-12T23:24:37.025Z,2.10
2022-08-12T23:27:24.890Z,1.73
2022-08-12T23:30:19.009Z,2.20
2022-08-12T23:32:54.732Z,1.90
2022-08-12T23:35:53.897Z,1.90
2022-08-12T23:38:28.999Z,2.00
2022-08-12T23:41:01.501Z,1.90
2022-08-12T23:43:39.574Z,1.90
2022-08-12T23:46:09.888Z,1.90
2022-08-12T23:48:38.174Z,2.00
2022-08-12T23:51:22.506Z,1.95
2022-08-12T23:53:55.376Z,1.90
2022-08-12T23:56:23.933Z,2.03
2022-08-12T23:58:52.784Z,1.90
